Time;durP1;ratioP1;P1;durP2;ratioP2;P2;SDS_P1;SDS_P2;PMS_P1;PMS_P2;Temp;Humidity;BMP_temperature;BMP_pressure;BME280_temperature;BME280_humidity;BME280_pressure;Samples;Min_cycle;Max_cycle;Signal;HPM_P1;HPM_P2
2022/03/31 00:00:38;;;;;;;2.83;0.88;;;13.40;56.00;;;;;;4126427;28;20050;-69
2022/03/31 00:03:01;;;;;;;1.83;0.60;;;13.40;56.80;;;;;;4125502;28;20070;-70
2022/03/31 00:05:24;;;;;;;1.60;0.50;;;13.40;56.80;;;;;;4126376;28;20054;-70
2022/03/31 00:07:51;;;;;;;1.10;0.60;;;13.40;55.20;;;;;;4125710;28;20458;-70
2022/03/31 00:10:15;;;;;;;0.80;0.50;;;13.40;53.90;;;;;;4126314;28;20069;-71
2022/03/31 00:12:37;;;;;;;5.43;1.23;;;13.40;54.60;;;;;;4125457;28;20048;-72
2022/03/31 00:14:59;;;;;;;1.38;0.60;;;13.40;55.90;;;;;;4126134;28;20386;-72
2022/03/31 00:17:21;;;;;;;1.23;0.60;;;13.40;55.80;;;;;;4126318;28;20051;-71
2022/03/31 00:19:43;;;;;;;3.78;0.75;;;13.40;56.30;;;;;;4126374;28;20505;-71
2022/03/31 00:22:07;;;;;;;2.35;0.57;;;13.40;56.90;;;;;;4125883;28;20093;-71
2022/03/31 00:24:29;;;;;;;2.53;0.75;;;13.40;57.00;;;;;;4124790;28;20057;-71
2022/03/31 00:26:53;;;;;;;1.30;0.63;;;13.40;57.40;;;;;;4125354;28;20144;-71
2022/03/31 00:29:15;;;;;;;3.35;0.85;;;13.40;56.40;;;;;;4110983;28;20117;-71
2022/03/31 00:31:39;;;;;;;2.58;0.80;;;13.30;54.80;;;;;;4125570;28;20042;-71
2022/03/31 00:34:01;;;;;;;3.08;0.80;;;13.40;54.50;;;;;;4125574;28;20050;-68
2022/03/31 00:36:23;;;;;;;4.63;0.85;;;13.40;55.50;;;;;;4125867;28;20093;-70
2022/03/31 00:39:28;;;;;;;2.53;0.73;;;13.30;56.30;;;;;;4125897;28;20050;-71
2022/03/31 00:41:27;;;;;;;1.23;0.93;;;13.30;57.10;;;;;;4125402;28;20120;-70
2022/03/31 00:43:51;;;;;;;2.13;1.05;;;13.30;57.50;;;;;;4111332;28;21681;-71
2022/03/31 00:46:22;;;;;;;2.92;1.45;;;13.30;57.00;;;;;;4124872;28;20478;-70
2022/03/31 00:48:44;;;;;;;2.47;0.70;;;13.30;57.60;;;;;;4125957;28;20042;-70
2022/03/31 00:51:06;;;;;;;2.78;0.93;;;13.30;58.00;;;;;;4125701;28;20328;-70
2022/03/31 00:53:28;;;;;;;2.33;1.30;;;13.30;58.20;;;;;;4126067;28;20058;-71
2022/03/31 00:55:51;;;;;;;1.55;0.70;;;13.30;58.20;;;;;;4126003;28;20062;-71
2022/03/31 00:58:16;;;;;;;4.10;1.55;;;13.30;57.90;;;;;;4126128;28;20192;-71
2022/03/31 01:00:40;;;;;;;2.75;1.30;;;13.30;57.80;;;;;;4125460;28;20056;-71
2022/03/31 01:03:02;;;;;;;2.53;1.10;;;13.30;57.80;;;;;;4125538;28;20062;-71
2022/03/31 01:05:24;;;;;;;3.47;1.10;;;13.30;57.60;;;;;;4125560;28;20050;-71
2022/03/31 01:07:46;;;;;;;2.72;1.13;;;13.30;57.70;;;;;;4125575;28;20061;-72
2022/03/31 01:10:09;;;;;;;3.38;1.40;;;13.30;57.90;;;;;;4111037;28;20184;-71
2022/03/31 01:12:32;;;;;;;2.25;1.33;;;13.30;57.20;;;;;;4125658;28;20058;-71
2022/03/31 01:15:06;;;;;;;1.98;1.40;;;13.30;58.30;;;;;;4125650;28;20073;-70
2022/03/31 01:17:30;;;;;;;3.50;1.70;;;13.30;57.70;;;;;;4117107;28;20454;-71
2022/03/31 01:19:52;;;;;;;3.33;1.77;;;13.30;57.50;;;;;;4125579;28;20054;-70
2022/03/31 01:22:14;;;;;;;2.70;2.03;;;13.30;56.50;;;;;;4125777;28;20051;-70
2022/03/31 01:24:38;;;;;;;2.25;1.75;;;13.30;57.50;;;;;;4125122;28;20042;-70
2022/03/31 01:27:01;;;;;;;3.55;2.30;;;13.20;57.50;;;;;;4110249;28;20093;-70
2022/03/31 01:29:26;;;;;;;4.70;2.42;;;13.20;56.50;;;;;;4124817;28;20145;-71
2022/03/31 01:31:49;;;;;;;3.28;2.47;;;13.30;56.60;;;;;;4125045;28;20063;-71
2022/03/31 01:34:11;;;;;;;3.33;2.00;;;13.20;56.70;;;;;;4125635;28;20116;-70
2022/03/31 01:36:33;;;;;;;3.00;2.13;;;13.20;56.70;;;;;;4125137;28;20072;-70
2022/03/31 01:38:56;;;;;;;2.38;2.08;;;13.20;58.00;;;;;;4127931;28;20093;-70
2022/03/31 01:41:19;;;;;;;3.45;2.58;;;13.20;58.20;;;;;;4128495;28;20409;-70
2022/03/31 01:43:41;;;;;;;3.45;2.80;;;13.20;57.90;;;;;;4128225;28;20053;-69
2022/03/31 01:46:05;;;;;;;3.67;2.40;;;13.20;57.50;;;;;;4127612;28;20050;-69
2022/03/31 01:48:28;;;;;;;5.13;2.38;;;13.20;57.40;;;;;;4128755;28;20042;-70
2022/03/31 01:50:50;;;;;;;3.97;2.40;;;13.10;58.10;;;;;;4127746;28;20148;-70
2022/03/31 01:53:14;;;;;;;3.22;2.92;;;13.20;58.40;;;;;;4127986;28;20419;-70
2022/03/31 01:55:36;;;;;;;4.47;2.70;;;13.10;58.30;;;;;;4127445;28;20387;-70
2022/03/31 01:58:00;;;;;;;5.53;2.33;;;13.10;58.20;;;;;;4113352;28;20468;-69
2022/03/31 02:00:21;;;;;;;3.47;2.50;;;13.10;58.60;;;;;;4127274;28;20069;-70
2022/03/31 02:02:44;;;;;;;3.42;2.22;;;13.10;58.30;;;;;;4127190;28;20042;-70
2022/03/31 02:05:08;;;;;;;3.47;2.42;;;13.10;58.60;;;;;;4127899;28;20038;-69
2022/03/31 02:07:30;;;;;;;2.47;2.25;;;13.10;58.80;;;;;;4128068;28;20125;-69
2022/03/31 02:09:52;;;;;;;3.63;2.40;;;13.10;59.50;;;;;;4127812;28;20116;-70
2022/03/31 02:12:14;;;;;;;2.92;2.72;;;13.10;59.70;;;;;;4121975;28;20109;-70
2022/03/31 02:14:38;;;;;;;5.03;2.30;;;13.10;59.40;;;;;;4118077;28;20101;-70
2022/03/31 02:17:00;;;;;;;3.70;2.58;;;13.10;58.60;;;;;;4127266;28;20410;-70
2022/03/31 02:19:25;;;;;;;2.42;2.10;;;13.10;58.50;;;;;;4127356;28;21008;-70
2022/03/31 02:21:47;;;;;;;2.95;2.20;;;13.10;58.10;;;;;;4126280;28;20064;-70
2022/03/31 02:24:09;;;;;;;2.45;2.30;;;13.10;57.90;;;;;;4112788;28;20050;-69
2022/03/31 02:26:32;;;;;;;2.50;2.40;;;13.00;58.20;;;;;;4127742;28;20104;-70
2022/03/31 02:28:54;;;;;;;2.42;2.22;;;13.00;58.20;;;;;;4127802;28;20052;-70
2022/03/31 02:31:17;;;;;;;2.40;2.20;;;13.00;58.00;;;;;;4127611;28;20058;-70
2022/03/31 02:33:40;;;;;;;2.30;2.20;;;12.90;57.80;;;;;;4127565;28;20046;-69
2022/03/31 02:36:04;;;;;;;2.58;2.25;;;12.90;58.70;;;;;;4111618;28;20426;-69
2022/03/31 02:38:26;;;;;;;3.60;2.15;;;12.90;58.30;;;;;;4111741;28;20038;-69
2022/03/31 02:40:49;;;;;;;2.50;2.30;;;12.80;59.10;;;;;;4125178;28;20494;-69
2022/03/31 02:43:12;;;;;;;2.20;2.10;;;12.80;59.60;;;;;;4127572;28;20513;-69
2022/03/31 02:45:34;;;;;;;1.90;1.80;;;12.80;59.30;;;;;;4112277;28;20046;-69
2022/03/31 02:47:58;;;;;;;3.55;2.42;;;12.80;58.50;;;;;;4111348;28;20059;-70
2022/03/31 02:50:20;;;;;;;2.05;1.95;;;12.80;59.10;;;;;;4110625;28;20553;-70
2022/03/31 02:55:28;;;;;;;3.67;2.40;;;12.70;59.20;;;;;;4109343;28;20051;-69
2022/03/31 02:57:50;;;;;;;2.65;2.08;;;12.70;59.30;;;;;;4126920;28;20049;-68
2022/03/31 03:00:14;;;;;;;2.22;2.13;;;12.70;59.30;;;;;;4121973;28;20479;-70
2022/03/31 03:02:36;;;;;;;2.03;1.92;;;12.70;59.60;;;;;;4127202;28;20042;-71
2022/03/31 03:04:59;;;;;;;3.10;2.35;;;12.70;59.80;;;;;;4127137;28;20450;-69
2022/03/31 03:07:21;;;;;;;2.75;2.50;;;12.70;59.60;;;;;;4112337;28;20042;-69
2022/03/31 03:09:43;;;;;;;2.28;2.17;;;12.70;59.60;;;;;;4126917;28;20053;-68
2022/03/31 03:12:07;;;;;;;2.65;2.45;;;12.70;60.30;;;;;;4112093;28;20530;-69
2022/03/31 03:14:29;;;;;;;2.05;1.88;;;12.70;60.80;;;;;;4126535;28;20048;-69
2022/03/31 03:16:51;;;;;;;2.78;2.60;;;12.70;60.00;;;;;;4110715;28;20451;-69
2022/03/31 03:19:13;;;;;;;2.25;2.15;;;12.70;60.20;;;;;;4122236;28;20049;-69
2022/03/31 03:21:37;;;;;;;2.15;2.05;;;12.70;60.80;;;;;;4126847;28;20058;-69
2022/03/31 03:23:59;;;;;;;2.50;2.40;;;12.70;61.10;;;;;;4126714;28;20042;-69
2022/03/31 03:26:22;;;;;;;2.22;2.13;;;12.70;62.10;;;;;;4126805;28;20137;-69
2022/03/31 03:28:44;;;;;;;2.53;2.33;;;12.70;61.20;;;;;;4126603;28;20057;-69
2022/03/31 03:31:07;;;;;;;2.42;2.20;;;12.70;60.90;;;;;;4126580;28;20053;-69
2022/03/31 03:33:29;;;;;;;4.15;2.75;;;12.70;61.40;;;;;;4111946;28;20391;-69
2022/03/31 03:35:51;;;;;;;2.67;2.58;;;12.70;61.70;;;;;;4126529;28;20046;-68
2022/03/31 03:38:16;;;;;;;3.05;2.78;;;12.80;61.50;;;;;;4111420;28;20090;-70
2022/03/31 03:40:38;;;;;;;2.83;2.67;;;12.80;60.50;;;;;;4111220;28;20062;-69
2022/03/31 03:43:00;;;;;;;2.80;2.60;;;12.70;61.10;;;;;;4114622;28;20069;-69
2022/03/31 03:45:22;;;;;;;3.30;3.10;;;12.80;61.30;;;;;;4113708;28;20133;-69
2022/03/31 03:47:44;;;;;;;3.20;3.00;;;12.80;60.60;;;;;;4126347;28;20129;-69
2022/03/31 03:50:07;;;;;;;3.35;3.15;;;12.80;59.80;;;;;;4126417;28;20056;-69
2022/03/31 03:52:30;;;;;;;4.25;3.75;;;12.80;59.70;;;;;;4126508;28;20060;-68
2022/03/31 03:54:54;;;;;;;3.75;3.45;;;12.70;60.20;;;;;;4126378;28;20046;-69
2022/03/31 03:57:16;;;;;;;3.22;2.90;;;12.70;60.60;;;;;;4126649;28;20141;-68
2022/03/31 03:59:38;;;;;;;3.35;3.05;;;12.70;60.10;;;;;;4126228;28;20137;-69
2022/03/31 04:02:00;;;;;;;3.85;3.55;;;12.70;60.60;;;;;;4126595;28;20165;-68
2022/03/31 04:04:22;;;;;;;3.92;3.65;;;12.70;60.90;;;;;;4126269;28;20108;-66
2022/03/31 04:06:45;;;;;;;3.97;3.65;;;12.70;61.10;;;;;;4126526;28;20414;-68
2022/03/31 04:09:07;;;;;;;3.55;3.33;;;12.70;60.50;;;;;;4126123;28;20060;-68
2022/03/31 04:11:31;;;;;;;4.13;3.83;;;12.70;60.50;;;;;;4125961;28;20505;-68
2022/03/31 04:13:52;;;;;;;3.63;3.40;;;12.70;61.10;;;;;;4110393;28;20043;-68
2022/03/31 04:16:14;;;;;;;3.65;3.25;;;12.70;60.60;;;;;;4110264;28;20121;-68
2022/03/31 04:18:36;;;;;;;4.03;3.72;;;12.70;61.50;;;;;;4110090;28;20050;-68
2022/03/31 04:21:01;;;;;;;3.00;2.90;;;12.70;61.90;;;;;;4095671;28;20051;-69
2022/03/31 04:23:23;;;;;;;3.33;3.13;;;12.70;61.70;;;;;;4123784;28;20057;-69
2022/03/31 04:25:45;;;;;;;2.28;2.17;;;12.70;62.20;;;;;;4126185;28;20057;-69
2022/03/31 04:28:09;;;;;;;2.33;2.13;;;12.70;62.00;;;;;;4126119;28;20050;-69
2022/03/31 04:30:31;;;;;;;2.10;2.00;;;12.70;61.80;;;;;;4111234;28;20074;-69
2022/03/31 04:32:53;;;;;;;2.00;1.90;;;12.70;62.00;;;;;;4126029;28;20375;-68
2022/03/31 04:35:16;;;;;;;2.42;2.33;;;12.70;61.70;;;;;;4126425;28;20076;-67
2022/03/31 04:37:39;;;;;;;2.30;2.20;;;12.70;61.10;;;;;;4126143;28;20070;-69
2022/03/31 04:40:03;;;;;;;3.10;2.90;;;12.70;60.80;;;;;;4111289;28;20553;-68
2022/03/31 04:42:25;;;;;;;4.10;3.85;;;12.70;60.90;;;;;;4125198;28;20093;-69
2022/03/31 04:44:49;;;;;;;3.55;3.33;;;12.70;59.50;;;;;;4110793;28;20074;-69
2022/03/31 04:47:12;;;;;;;3.03;2.83;;;12.60;60.60;;;;;;4125664;28;20046;-70
2022/03/31 04:49:34;;;;;;;3.22;3.00;;;12.60;61.60;;;;;;4125995;28;20056;-70
2022/03/31 04:51:56;;;;;;;3.85;3.63;;;12.60;62.00;;;;;;4125400;28;20435;-70
2022/03/31 04:54:18;;;;;;;4.18;3.88;;;12.60;61.90;;;;;;4125666;28;20215;-70
2022/03/31 04:56:41;;;;;;;4.10;3.80;;;12.60;61.20;;;;;;4125952;28;20418;-69
2022/03/31 04:59:03;;;;;;;4.25;3.95;;;12.60;61.90;;;;;;4110938;28;20708;-69
2022/03/31 05:01:26;;;;;;;3.65;3.45;;;12.60;61.10;;;;;;4125523;28;20054;-69
2022/03/31 05:03:48;;;;;;;4.05;3.75;;;12.60;60.80;;;;;;4095086;28;20055;-70
2022/03/31 05:06:11;;;;;;;4.43;4.00;;;12.60;61.20;;;;;;4110915;28;20055;-70
2022/03/31 05:08:33;;;;;;;4.00;3.70;;;12.60;61.40;;;;;;4125818;28;20054;-70
2022/03/31 05:10:55;;;;;;;4.18;3.88;;;12.60;61.50;;;;;;4125522;28;20387;-70
2022/03/31 05:13:18;;;;;;;4.40;4.05;;;12.60;61.40;;;;;;4111935;28;20110;-70
2022/03/31 05:15:40;;;;;;;3.97;3.75;;;12.60;61.60;;;;;;4128591;28;20066;-70
2022/03/31 05:18:04;;;;;;;4.10;3.83;;;12.60;61.50;;;;;;4128191;28;20056;-70
2022/03/31 05:20:26;;;;;;;4.60;4.30;;;12.60;60.90;;;;;;4128148;28;20073;-70
2022/03/31 05:22:48;;;;;;;3.88;3.58;;;12.50;60.20;;;;;;4128684;28;20053;-70
2022/03/31 05:25:12;;;;;;;5.20;4.70;;;12.60;60.30;;;;;;4113357;28;20066;-70
2022/03/31 05:27:35;;;;;;;4.55;4.25;;;12.50;59.80;;;;;;4113342;28;20156;-72
2022/03/31 05:29:57;;;;;;;3.88;3.67;;;12.50;59.80;;;;;;4112098;28;20054;-71
2022/03/31 05:32:20;;;;;;;3.70;3.50;;;12.50;60.30;;;;;;4112318;28;20653;-74
2022/03/31 05:34:44;;;;;;;4.20;4.00;;;12.50;61.00;;;;;;4111949;28;20513;-72
2022/03/31 05:37:06;;;;;;;3.63;3.42;;;12.40;60.50;;;;;;4117627;28;20046;-71
2022/03/31 05:39:28;;;;;;;5.75;5.25;;;12.40;60.40;;;;;;4112641;28;20051;-69
2022/03/31 05:41:50;;;;;;;3.90;3.70;;;12.40;61.70;;;;;;4127449;28;20062;-69
2022/03/31 05:44:12;;;;;;;3.17;3.08;;;12.40;60.80;;;;;;4127958;28;20112;-69
2022/03/31 05:46:34;;;;;;;3.35;3.00;;;12.30;60.70;;;;;;4127924;28;20558;-69
2022/03/31 05:48:56;;;;;;;2.53;2.40;;;12.30;60.80;;;;;;4127907;28;20050;-69
2022/03/31 05:51:20;;;;;;;2.42;2.33;;;12.30;60.90;;;;;;4127699;28;20085;-70
2022/03/31 05:53:42;;;;;;;2.30;2.20;;;12.30;61.50;;;;;;4128014;28;20451;-70
2022/03/31 05:56:05;;;;;;;2.30;2.20;;;12.30;61.50;;;;;;4123288;28;20042;-70
2022/03/31 05:58:27;;;;;;;2.10;2.10;;;12.30;61.60;;;;;;4127049;28;20072;-66
2022/03/31 06:00:52;;;;;;;1.90;1.90;;;12.40;62.00;;;;;;4126820;28;20514;-68
2022/03/31 06:03:15;;;;;;;2.00;1.90;;;12.40;62.00;;;;;;4113158;28;20051;-65
2022/03/31 06:05:37;;;;;;;1.83;1.83;;;12.40;62.20;;;;;;4113018;28;20154;-66
2022/03/31 06:08:01;;;;;;;2.17;2.08;;;12.40;61.80;;;;;;4128331;28;20085;-66
2022/03/31 06:10:23;;;;;;;1.90;1.90;;;12.40;61.30;;;;;;4120240;28;20075;-67
2022/03/31 06:12:46;;;;;;;2.28;2.17;;;12.40;61.90;;;;;;4118616;28;20054;-68
2022/03/31 06:15:09;;;;;;;2.50;2.40;;;12.40;61.30;;;;;;4119128;28;20124;-68
2022/03/31 06:17:32;;;;;;;2.60;2.50;;;12.30;61.40;;;;;;4125500;28;20082;-67
2022/03/31 06:19:53;;;;;;;2.88;2.78;;;12.30;61.00;;;;;;4112524;28;20047;-67
2022/03/31 06:22:16;;;;;;;2.83;2.72;;;12.20;61.40;;;;;;4111210;28;20137;-68
2022/03/31 06:24:39;;;;;;;3.45;3.30;;;12.20;61.40;;;;;;4083312;28;20074;-68
2022/03/31 06:27:02;;;;;;;3.20;3.10;;;12.10;61.40;;;;;;4116257;28;20043;-69
2022/03/31 06:29:25;;;;;;;3.10;3.00;;;12.10;61.20;;;;;;4111565;28;20113;-68
2022/03/31 06:31:47;;;;;;;3.85;3.65;;;12.00;61.50;;;;;;4111036;28;20152;-68
2022/03/31 06:34:09;;;;;;;4.00;3.80;;;12.00;61.70;;;;;;4110988;28;20055;-67
2022/03/31 06:36:32;;;;;;;3.38;3.17;;;12.00;61.90;;;;;;4096877;28;20046;-67
2022/03/31 06:38:54;;;;;;;4.00;3.80;;;11.90;62.60;;;;;;4111356;28;20126;-67
2022/03/31 06:41:18;;;;;;;4.15;3.95;;;11.90;63.20;;;;;;4112936;28;20117;-67
2022/03/31 06:43:41;;;;;;;4.00;3.80;;;11.90;63.30;;;;;;4126742;28;20116;-67
2022/03/31 06:46:04;;;;;;;3.70;3.50;;;11.90;62.60;;;;;;4124632;28;20455;-67
2022/03/31 06:48:26;;;;;;;3.83;3.60;;;11.80;63.20;;;;;;4110114;28;20086;-66
2022/03/31 06:50:48;;;;;;;3.60;3.40;;;11.90;63.10;;;;;;4125191;28;20047;-66
2022/03/31 06:53:11;;;;;;;3.70;3.50;;;11.90;63.80;;;;;;4124616;28;20371;-67
2022/03/31 06:55:33;;;;;;;3.35;3.25;;;12.20;64.90;;;;;;4125020;28;20050;-67
2022/03/31 06:57:56;;;;;;;3.42;3.22;;;12.70;63.90;;;;;;4124421;28;20070;-66
2022/03/31 07:00:20;;;;;;;3.65;3.45;;;13.20;61.70;;;;;;4124891;28;20128;-67
2022/03/31 07:02:42;;;;;;;3.72;3.53;;;13.80;59.80;;;;;;4124385;28;20065;-67
2022/03/31 07:05:05;;;;;;;3.00;2.80;;;14.50;58.20;;;;;;4124897;28;20050;-68
2022/03/31 07:07:27;;;;;;;4.07;3.78;;;15.10;56.70;;;;;;4124192;28;20050;-68
2022/03/31 07:09:51;;;;;;;4.03;3.72;;;15.60;56.00;;;;;;4124991;28;20141;-68
2022/03/31 07:12:13;;;;;;;3.42;3.22;;;16.10;54.70;;;;;;4108189;28;20047;-68
2022/03/31 07:14:37;;;;;;;3.15;2.95;;;16.60;53.50;;;;;;4109114;28;20065;-68
2022/03/31 07:16:59;;;;;;;3.50;3.30;;;16.90;52.40;;;;;;4109690;28;20089;-68
2022/03/31 07:19:23;;;;;;;3.17;2.97;;;17.00;50.90;;;;;;4124014;28;20062;-67
2022/03/31 07:21:45;;;;;;;3.47;3.28;;;17.00;51.40;;;;;;4124465;28;20050;-68
2022/03/31 07:24:08;;;;;;;3.42;3.33;;;17.00;52.00;;;;;;4124258;28;20151;-68
2022/03/31 07:26:31;;;;;;;3.47;3.28;;;17.00;51.20;;;;;;4124417;28;20050;-68
2022/03/31 07:28:53;;;;;;;3.35;3.22;;;16.90;52.80;;;;;;4124043;28;20074;-68
2022/03/31 07:31:16;;;;;;;3.78;3.58;;;16.70;51.90;;;;;;4122510;28;20125;-67
2022/03/31 07:33:38;;;;;;;3.40;3.20;;;16.50;51.70;;;;;;4123163;28;20049;-68
2022/03/31 07:36:01;;;;;;;3.65;3.35;;;16.20;51.70;;;;;;4123562;28;20050;-69
2022/03/31 07:38:23;;;;;;;3.45;3.25;;;16.00;52.90;;;;;;4109150;28;20142;-68
2022/03/31 07:40:45;;;;;;;2.90;2.80;;;15.80;54.50;;;;;;4123876;28;20546;-63
2022/03/31 07:43:08;;;;;;;3.03;2.83;;;15.70;54.60;;;;;;4122983;28;20459;-66
2022/03/31 07:45:31;;;;;;;3.17;2.97;;;15.60;55.90;;;;;;4123026;28;20141;-65
2022/03/31 07:47:55;;;;;;;2.78;2.58;;;15.50;54.90;;;;;;4123206;28;20050;-65
2022/03/31 07:50:19;;;;;;;3.33;3.03;;;15.50;55.00;;;;;;4093782;28;20047;-65
2022/03/31 07:52:42;;;;;;;3.08;2.88;;;15.50;54.60;;;;;;4123882;28;20056;-65
2022/03/31 07:55:05;;;;;;;2.65;2.55;;;15.60;54.80;;;;;;4124207;28;20133;-66
2022/03/31 07:57:27;;;;;;;2.75;2.58;;;15.60;54.50;;;;;;4123848;28;20359;-65
2022/03/31 07:59:49;;;;;;;2.80;2.70;;;15.70;54.90;;;;;;4123675;28;20133;-66
2022/03/31 08:02:12;;;;;;;2.75;2.65;;;15.70;53.40;;;;;;4122496;28;20069;-62
2022/03/31 08:04:36;;;;;;;2.70;2.50;;;15.70;53.30;;;;;;4123588;28;20519;-62
2022/03/31 08:06:58;;;;;;;3.10;3.00;;;15.70;53.30;;;;;;4123776;28;20050;-64
2022/03/31 08:09:21;;;;;;;3.28;3.10;;;15.60;52.40;;;;;;4123097;28;20136;-64
2022/03/31 08:11:45;;;;;;;3.47;3.28;;;15.50;52.80;;;;;;4108477;28;20117;-64
2022/03/31 08:14:07;;;;;;;4.03;3.80;;;15.40;53.30;;;;;;4123503;28;20136;-63
2022/03/31 08:16:31;;;;;;;4.07;3.78;;;15.40;52.20;;;;;;4123481;28;20091;-66
2022/03/31 08:18:54;;;;;;;4.30;4.10;;;15.40;52.40;;;;;;4123698;28;20196;-68
2022/03/31 08:21:17;;;;;;;4.45;4.25;;;15.40;52.80;;;;;;4123137;28;20042;-68
2022/03/31 08:23:39;;;;;;;4.80;4.50;;;15.40;53.70;;;;;;4122231;28;20054;-68
2022/03/31 08:26:02;;;;;;;3.95;3.75;;;15.40;53.60;;;;;;4108076;28;20051;-67
2022/03/31 08:28:25;;;;;;;4.70;4.40;;;15.50;53.40;;;;;;4108199;28;20166;-67
2022/03/31 08:30:47;;;;;;;6.03;5.38;;;15.50;53.60;;;;;;4123342;28;20090;-67
2022/03/31 08:33:09;;;;;;;6.82;6.30;;;15.40;53.00;;;;;;4108979;28;20059;-66
2022/03/31 08:35:36;;;;;;;8.82;8.15;;;15.40;53.00;;;;;;4122841;28;20061;-65
2022/03/31 08:37:59;;;;;;;9.73;8.93;;;15.40;52.50;;;;;;4123563;28;20050;-65
2022/03/31 08:40:22;;;;;;;10.50;9.60;;;15.30;53.70;;;;;;4108860;28;20058;-65
2022/03/31 08:42:44;;;;;;;11.43;10.43;;;15.30;53.20;;;;;;4123611;28;20050;-65
2022/03/31 08:45:10;;;;;;;11.07;10.07;;;15.20;53.70;;;;;;4123630;28;20058;-64
2022/03/31 08:47:33;;;;;;;12.45;11.35;;;15.20;54.00;;;;;;4123396;28;20097;-63
2022/03/31 08:50:10;;;;;;;10.07;9.18;;;15.10;53.40;;;;;;4126132;28;20117;-63
2022/03/31 08:52:32;;;;;;;10.68;9.77;;;15.10;54.50;;;;;;4112033;28;20406;-63
2022/03/31 08:54:56;;;;;;;9.93;9.02;;;15.00;53.70;;;;;;4126308;28;20054;-64
2022/03/31 08:57:19;;;;;;;9.48;8.63;;;15.00;53.40;;;;;;4125904;28;20084;-64
2022/03/31 08:59:54;;;;;;;8.13;7.53;;;15.00;54.50;;;;;;4127040;28;20176;-64
2022/03/31 09:02:26;;;;;;;8.68;7.97;;;15.00;54.50;;;;;;4111641;28;20062;-63
2022/03/31 09:04:59;;;;;;;7.40;6.80;;;15.10;54.70;;;;;;4125557;28;20085;-64
2022/03/31 09:07:21;;;;;;;6.20;5.75;;;15.20;54.90;;;;;;4126230;28;20061;-65
2022/03/31 09:09:47;;;;;;;5.07;4.78;;;15.30;53.40;;;;;;4125815;28;20043;-64
2022/03/31 09:12:10;;;;;;;4.20;3.95;;;15.30;53.40;;;;;;4111437;28;20700;-65
2022/03/31 09:14:44;;;;;;;3.67;3.47;;;15.40;53.70;;;;;;4126353;28;20049;-65
2022/03/31 09:17:11;;;;;;;3.58;3.38;;;15.40;53.00;;;;;;4125977;28;20050;-66
2022/03/31 09:19:35;;;;;;;3.08;2.95;;;15.40;53.50;;;;;;4125851;28;20485;-65
2022/03/31 09:21:59;;;;;;;2.97;2.78;;;15.30;53.80;;;;;;4126281;28;20066;-66
2022/03/31 09:24:23;;;;;;;2.70;2.50;;;15.30;52.90;;;;;;4433353;23;20058;-67
2022/03/31 09:26:47;;;;;;;3.00;2.90;;;15.30;53.50;;;;;;4121585;28;20125;-66
2022/03/31 09:29:15;;;;;;;2.38;2.28;;;15.30;52.50;;;;;;4423012;23;20046;-63
2022/03/31 09:31:37;;;;;;;3.50;3.30;;;15.30;52.80;;;;;;4123730;28;20141;-64
2022/03/31 09:34:00;;;;;;;5.38;5.00;;;15.30;53.60;;;;;;4126168;28;20125;-64
2022/03/31 09:36:24;;;;;;;7.20;6.70;;;15.30;51.70;;;;;;4126135;28;20061;-65
2022/03/31 09:38:53;;;;;;;8.43;7.72;;;15.30;51.60;;;;;;4126033;28;20039;-64
2022/03/31 09:41:19;;;;;;;8.05;7.38;;;15.20;51.50;;;;;;4125179;28;20166;-64
2022/03/31 09:43:42;;;;;;;7.30;6.70;;;15.10;51.00;;;;;;4432933;23;20053;-66
2022/03/31 09:46:05;;;;;;;6.32;5.82;;;15.00;51.20;;;;;;4109152;28;20061;-65
2022/03/31 09:58:35;;;;;;;5.65;5.25;;;14.90;52.00;;;;;;4572841;24;20254;31
2022/03/31 10:00:54;;;;;;;5.55;5.10;;;14.90;52.10;;;;;;3907123;30;20064;-64
2022/03/31 10:03:18;;;;;;;6.22;5.78;;;14.90;52.70;;;;;;3911345;30;20061;-65
2022/03/31 10:05:42;;;;;;;5.82;5.43;;;14.90;51.80;;;;;;3910614;30;20416;-66
2022/03/31 10:08:08;;;;;;;6.97;6.28;;;14.90;52.10;;;;;;3910074;30;21153;-65
2022/03/31 10:10:33;;;;;;;6.13;5.72;;;14.90;53.40;;;;;;3911096;30;20052;-66
2022/03/31 10:12:59;;;;;;;5.22;4.88;;;14.90;52.10;;;;;;3902158;30;20064;-65
2022/03/31 10:15:30;;;;;;;4.90;4.60;;;14.90;51.30;;;;;;3910305;30;20130;-63
2022/03/31 10:17:52;;;;;;;4.18;3.95;;;14.90;51.10;;;;;;3910439;30;20124;-64
2022/03/31 10:20:17;;;;;;;3.75;3.53;;;14.80;51.20;;;;;;3910855;30;20959;-64
2022/03/31 10:25:20;;;;;;;2.92;2.83;;;14.60;52.60;;;;;;3911005;30;20080;-64
2022/03/31 10:27:45;;;;;;;2.72;2.63;;;14.50;52.60;;;;;;3910251;30;20117;-63
2022/03/31 10:30:11;;;;;;;3.03;2.92;;;14.50;52.80;;;;;;3910971;30;20057;-64
2022/03/31 10:32:33;;;;;;;2.55;2.45;;;14.40;55.30;;;;;;3909884;30;20199;-67
2022/03/31 10:34:56;;;;;;;2.88;2.78;;;14.50;53.50;;;;;;3910322;30;20088;-64
2022/03/31 10:37:34;;;;;;;3.17;3.00;;;14.40;52.80;;;;;;3910707;30;20057;-63
2022/03/31 10:39:56;;;;;;;2.40;2.30;;;14.40;53.00;;;;;;3911045;30;20596;-62
2022/03/31 10:42:18;;;;;;;3.15;2.88;;;14.40;54.20;;;;;;3910517;30;20084;-63
2022/03/31 10:44:41;;;;;;;2.75;2.55;;;14.30;53.40;;;;;;3910181;30;20068;-63
2022/03/31 10:47:05;;;;;;;2.55;2.45;;;14.30;53.40;;;;;;3910951;30;20060;-63
2022/03/31 10:49:27;;;;;;;2.78;2.67;;;14.20;53.40;;;;;;3910497;30;20051;-63
2022/03/31 10:51:50;;;;;;;2.70;2.60;;;14.10;54.10;;;;;;3910577;30;20483;-63
2022/03/31 10:54:25;;;;;;;3.05;2.85;;;14.10;54.40;;;;;;3910550;30;20079;-64
2022/03/31 10:56:47;;;;;;;2.95;2.75;;;14.20;54.70;;;;;;3910426;30;20116;-62
2022/03/31 10:59:10;;;;;;;2.65;2.33;;;14.30;54.20;;;;;;3914506;30;20063;-64
2022/03/31 11:01:33;;;;;;;2.50;2.40;;;14.30;53.90;;;;;;3912131;30;20481;-64
2022/03/31 11:04:01;;;;;;;2.75;2.65;;;14.50;54.00;;;;;;3924569;30;20458;-64
2022/03/31 11:06:22;;;;;;;2.80;2.70;;;14.50;52.80;;;;;;3925297;30;20060;-61
2022/03/31 11:08:48;;;;;;;2.58;2.47;;;14.60;53.50;;;;;;3924514;30;20058;-70
2022/03/31 11:11:19;;;;;;;2.50;2.40;;;14.60;53.50;;;;;;3923971;30;20063;-68
2022/03/31 11:13:41;;;;;;;2.47;2.38;;;14.60;53.20;;;;;;3924403;30;20147;-68
2022/03/31 11:16:05;;;;;;;2.60;2.50;;;14.70;52.30;;;;;;3924300;30;20092;-68
2022/03/31 11:18:28;;;;;;;2.60;2.50;;;14.70;52.50;;;;;;3924335;30;20470;-69
2022/03/31 11:20:55;;;;;;;2.65;2.55;;;14.60;53.40;;;;;;3924430;30;20048;-68
2022/03/31 11:23:18;;;;;;;2.28;2.17;;;14.60;52.90;;;;;;3924998;30;20145;-68
2022/03/31 11:25:44;;;;;;;2.85;2.70;;;14.60;53.50;;;;;;3923982;30;20666;-68
2022/03/31 11:28:13;;;;;;;2.72;2.60;;;14.60;52.70;;;;;;3924204;30;20062;-68
2022/03/31 11:30:36;;;;;;;2.33;2.22;;;14.60;53.30;;;;;;3909644;30;20498;-64
2022/03/31 11:32:58;;;;;;;2.80;2.70;;;14.60;53.30;;;;;;3924111;30;20407;-68
2022/03/31 11:35:22;;;;;;;3.20;3.00;;;14.60;52.70;;;;;;3923470;30;20420;-63
2022/03/31 11:37:45;;;;;;;3.00;2.90;;;14.70;54.00;;;;;;3923531;30;20047;-64
2022/03/31 11:40:11;;;;;;;2.60;2.50;;;14.80;53.40;;;;;;3923946;30;20079;-63
2022/03/31 11:42:34;;;;;;;3.20;3.10;;;14.90;55.00;;;;;;3924538;30;20071;-63
2022/03/31 11:44:57;;;;;;;2.88;2.70;;;14.90;53.20;;;;;;3923652;30;20071;-67
2022/03/31 11:47:20;;;;;;;3.00;2.80;;;14.90;52.50;;;;;;3924941;30;20122;-67
2022/03/31 11:49:44;;;;;;;4.07;3.78;;;14.90;52.20;;;;;;3923854;30;20063;-67
2022/03/31 11:52:06;;;;;;;2.85;2.75;;;14.80;51.90;;;;;;3924298;30;20412;-67
2022/03/31 11:54:30;;;;;;;3.88;3.67;;;14.70;51.80;;;;;;3924342;30;20217;-68
2022/03/31 11:57:03;;;;;;;3.13;3.03;;;14.60;53.90;;;;;;3924325;30;20084;-67
2022/03/31 11:59:25;;;;;;;3.50;3.20;;;14.50;53.90;;;;;;3923791;30;20063;-67
2022/03/31 12:01:49;;;;;;;4.18;3.78;;;14.50;54.20;;;;;;3923941;30;20056;-68
2022/03/31 12:04:18;;;;;;;3.60;3.40;;;14.50;53.70;;;;;;3924504;30;20135;-68
2022/03/31 12:06:42;;;;;;;3.78;3.47;;;14.50;53.60;;;;;;3924100;30;20561;-67
2022/03/31 12:09:05;;;;;;;4.07;3.88;;;14.50;53.50;;;;;;3923872;30;20071;-68
2022/03/31 12:11:29;;;;;;;4.53;4.22;;;14.60;53.00;;;;;;3910647;30;20063;-68
2022/03/31 12:13:53;;;;;;;4.43;4.10;;;14.70;52.40;;;;;;3924190;30;20659;-68
2022/03/31 12:16:16;;;;;;;4.22;3.92;;;14.70;52.00;;;;;;3924599;30;20052;-64
2022/03/31 12:18:40;;;;;;;5.45;5.03;;;14.80;52.70;;;;;;3924169;30;20493;-63
2022/03/31 12:21:03;;;;;;;4.88;4.47;;;14.80;52.80;;;;;;3924297;30;20067;-68
2022/03/31 12:23:27;;;;;;;5.20;4.80;;;14.90;52.60;;;;;;3910080;30;20138;-68
2022/03/31 12:25:50;;;;;;;5.65;5.25;;;14.80;52.40;;;;;;3924626;30;20060;-67
2022/03/31 12:28:13;;;;;;;6.07;5.57;;;14.80;52.20;;;;;;3923570;30;20386;-63
2022/03/31 12:30:47;;;;;;;5.65;5.25;;;14.70;52.60;;;;;;3924145;30;20056;-62
2022/03/31 12:33:23;;;;;;;5.30;5.00;;;14.60;53.40;;;;;;3923832;30;20521;-63
2022/03/31 12:35:57;;;;;;;6.40;5.93;;;14.50;53.80;;;;;;3924074;30;20108;-67
2022/03/31 12:38:20;;;;;;;5.80;5.20;;;14.50;52.50;;;;;;3924036;30;20085;-66
2022/03/31 12:40:44;;;;;;;6.03;5.63;;;14.50;53.50;;;;;;3922272;30;20063;-64